Nymore, Minnesota
Current Conditions -  °F | °C
As of 12:12 PM on Saturday 22 Nov 2014 (Local Time) from KBJI Reporting Station
Clear Clear  
Wind Chill: 32°   Ceiling: Unl
Heat Index: 37°   Visibility: 10mi
Dew Point: 29°   Wind: 6mph
Humidity: 73%   Direction: 140°SE
Pressure: 29.56"   Gusts: NA
Location:  47.5271°N, 94.7611°W
Report Text: KBJI 221812Z AUTO 14005KT 10SM CLR 03/M02 A2956 RMK AO2 T00281017
Loading
Personal Weather Stations






























Interactive Weather Map New forecast layout! Learn more

10-Day Weather Forecast

Advertisements
Track Severe Weather on mobile